Time;durP1;ratioP1;P1;durP2;ratioP2;P2;SDS_P1;SDS_P2;PMS_P1;PMS_P2;Temp;Humidity;BMP_temperature;BMP_pressure;BME280_temperature;BME280_humidity;BME280_pressure;Samples;Min_cycle;Max_cycle;Signal;HPM_P1;HPM_P2
2023/01/15 00:01:35;;;;;;;23.83;9.73;;;;;;;;;;5003265;28;20125;-43
2023/01/15 00:04:05;;;;;;;21.13;8.23;;;;;;;;;;5003875;28;20129;-45
2023/01/15 00:06:35;;;;;;;19.88;9.50;;;;;;;;;;5004484;28;20033;-44
2023/01/15 00:09:00;;;;;;;12.48;8.15;;;;;;;;;;5005267;28;20433;-42
2023/01/15 00:11:26;;;;;;;13.82;8.02;;;;;;;;;;5004373;28;20165;-43
2023/01/15 00:13:51;;;;;;;11.43;8.38;;;;;;;;;;5008600;28;20376;-42
2023/01/15 00:16:22;;;;;;;23.17;9.88;;;;;;;;;;5005028;28;20065;-43
2023/01/15 00:18:52;;;;;;;18.92;8.60;;;;;;;;;;5006267;28;20038;-42
2023/01/15 00:21:19;;;;;;;14.52;8.27;;;;;;;;;;5009877;28;20061;-47
2023/01/15 00:29:15;;;;;;;11.32;6.10;;;;;;;;;;5006539;28;20537;-43
2023/01/15 00:31:42;;;;;;;10.40;6.10;;;;;;;;;;5008154;28;20038;-44
2023/01/15 00:34:07;;;;;;;15.35;6.20;;;;;;;;;;5007412;28;20120;-43
2023/01/15 00:36:33;;;;;;;10.32;5.78;;;;;;;;;;5008006;28;20482;-42
2023/01/15 00:38:59;;;;;;;14.15;6.55;;;;;;;;;;5004406;28;20139;-42
2023/01/15 00:41:25;;;;;;;13.82;6.70;;;;;;;;;;5007025;28;20124;-42
2023/01/15 00:43:51;;;;;;;14.65;6.50;;;;;;;;;;5006602;28;20117;-45
2023/01/15 00:46:17;;;;;;;13.77;6.57;;;;;;;;;;5008823;28;20368;-44
2023/01/15 00:48:43;;;;;;;12.57;6.68;;;;;;;;;;5012994;28;20044;-42
2023/01/15 00:51:08;;;;;;;15.27;6.60;;;;;;;;;;5020375;28;20478;-43
2023/01/15 00:53:33;;;;;;;11.60;6.28;;;;;;;;;;5015053;28;20459;-45
2023/01/15 00:55:59;;;;;;;11.75;6.00;;;;;;;;;;5016118;28;20100;-42
2023/01/15 00:58:24;;;;;;;11.50;5.68;;;;;;;;;;5022734;28;20128;-50
2023/01/15 01:00:54;;;;;;;11.07;5.75;;;;;;;;;;5021910;28;20030;-42
2023/01/15 01:03:20;;;;;;;12.73;5.90;;;;;;;;;;5025816;28;20113;-43
2023/01/15 01:05:45;;;;;;;11.27;6.05;;;;;;;;;;5028850;28;20494;-43
2023/01/15 01:08:12;;;;;;;10.30;5.50;;;;;;;;;;5025490;28;20111;-43
2023/01/15 01:10:38;;;;;;;11.80;5.13;;;;;;;;;;5026497;28;20022;-42
2023/01/15 01:13:03;;;;;;;9.50;5.88;;;;;;;;;;5022739;28;20041;-42
2023/01/15 01:15:28;;;;;;;8.35;5.45;;;;;;;;;;5029081;28;20079;-44
2023/01/15 01:17:54;;;;;;;9.82;5.18;;;;;;;;;;5029578;28;20029;-40
2023/01/15 01:20:19;;;;;;;8.68;5.32;;;;;;;;;;5026760;28;20029;-42
2023/01/15 01:22:48;;;;;;;5.60;4.50;;;;;;;;;;5026620;28;20040;-42
2023/01/15 01:25:13;;;;;;;12.50;4.95;;;;;;;;;;5027736;28;20424;-42
2023/01/15 01:27:39;;;;;;;13.00;4.65;;;;;;;;;;5028168;28;20037;-42
2023/01/15 01:30:05;;;;;;;8.35;4.32;;;;;;;;;;5030854;28;20029;-47
2023/01/15 01:32:30;;;;;;;11.85;5.13;;;;;;;;;;5026545;28;20394;-43
2023/01/15 01:34:56;;;;;;;14.38;4.10;;;;;;;;;;5011362;28;20050;-43
2023/01/15 01:37:21;;;;;;;9.20;4.90;;;;;;;;;;5012155;28;20033;-44
2023/01/15 01:39:47;;;;;;;11.07;4.60;;;;;;;;;;5013345;28;20049;-42
2023/01/15 01:42:16;;;;;;;12.00;4.53;;;;;;;;;;5016170;28;20423;-43
2023/01/15 01:44:41;;;;;;;9.00;4.50;;;;;;;;;;5006360;28;20033;-44
2023/01/15 01:47:10;;;;;;;6.63;4.20;;;;;;;;;;5007322;28;20038;-43
2023/01/15 01:49:38;;;;;;;10.38;4.53;;;;;;;;;;5008634;28;20050;-43
2023/01/15 01:52:18;;;;;;;9.80;4.53;;;;;;;;;;5005096;28;20026;-42
2023/01/15 01:54:46;;;;;;;9.13;3.92;;;;;;;;;;5027986;28;20441;-44
2023/01/15 01:57:12;;;;;;;7.95;4.13;;;;;;;;;;5028764;28;20363;-42
2023/01/15 01:59:38;;;;;;;8.15;4.30;;;;;;;;;;5022600;28;20022;-46
2023/01/15 02:02:05;;;;;;;8.00;5.05;;;;;;;;;;5025170;28;20032;-42
2023/01/15 02:04:32;;;;;;;6.65;3.47;;;;;;;;;;5007708;28;20099;-46
2023/01/15 02:06:59;;;;;;;10.13;4.20;;;;;;;;;;5003265;28;20364;-45
2023/01/15 02:09:25;;;;;;;7.97;4.45;;;;;;;;;;5006236;28;20034;-44
2023/01/15 02:11:55;;;;;;;9.30;4.22;;;;;;;;;;5003845;28;20045;-44
2023/01/15 02:14:29;;;;;;;8.15;3.97;;;;;;;;;;5008038;28;20038;-42
2023/01/15 02:17:10;;;;;;;8.57;4.53;;;;;;;;;;5008568;28;20044;-43
2023/01/15 02:20:00;;;;;;;8.95;5.35;;;;;;;;;;5023065;28;20049;-42
2023/01/15 02:22:43;;;;;;;8.50;4.50;;;;;;;;;;5023602;28;20458;-42
2023/01/15 02:25:27;;;;;;;6.45;3.78;;;;;;;;;;5023821;28;20808;-43
2023/01/15 02:28:14;;;;;;;7.07;4.20;;;;;;;;;;5024824;28;20042;-43
2023/01/15 02:30:45;;;;;;;9.18;4.13;;;;;;;;;;5027578;28;20021;-44
2023/01/15 02:33:17;;;;;;;8.18;4.15;;;;;;;;;;5024639;28;20124;-46
2023/01/15 02:35:59;;;;;;;6.30;4.10;;;;;;;;;;5025758;28;20570;-42
2023/01/15 02:38:27;;;;;;;;;;;;;;;;;;5024561;28;20038;-43
2023/01/15 02:40:57;;;;;;;8.23;4.57;;;;;;;;;;5018850;28;20019;-44
2023/01/15 02:43:23;;;;;;;10.63;4.35;;;;;;;;;;5015534;28;20049;-43
2023/01/15 02:45:52;;;;;;;6.15;3.60;;;;;;;;;;5007564;28;20116;-43
2023/01/15 02:48:23;;;;;;;8.50;3.55;;;;;;;;;;5009718;28;20124;-42
2023/01/15 02:50:54;;;;;;;6.03;3.60;;;;;;;;;;5018224;28;20022;-42
2023/01/15 02:53:27;;;;;;;6.60;3.58;;;;;;;;;;5018035;28;20037;-43
2023/01/15 02:55:58;;;;;;;11.02;3.95;;;;;;;;;;5023717;28;20022;-43
2023/01/15 02:58:29;;;;;;;4.55;4.15;;;;;;;;;;5024496;28;20486;-44
2023/01/15 03:00:57;;;;;;;5.28;4.20;;;;;;;;;;5025167;28;20116;-43
2023/01/15 03:03:39;;;;;;;5.40;3.42;;;;;;;;;;5024587;28;20536;-44
2023/01/15 03:06:09;;;;;;;14.18;4.88;;;;;;;;;;5021058;28;20052;-43
2023/01/15 03:08:35;;;;;;;9.90;3.78;;;;;;;;;;5019596;28;20446;-43
2023/01/15 03:11:13;;;;;;;6.80;3.70;;;;;;;;;;5014013;28;20030;-43
2023/01/15 03:13:41;;;;;;;7.65;3.80;;;;;;;;;;5012149;28;20053;-44
2023/01/15 03:16:34;;;;;;;13.38;4.40;;;;;;;;;;5009432;28;20037;-46
2023/01/15 03:19:15;;;;;;;8.90;3.90;;;;;;;;;;5004548;28;20056;-42
2023/01/15 03:21:52;;;;;;;8.18;3.97;;;;;;;;;;5004595;28;20033;-42
2023/01/15 03:24:24;;;;;;;5.72;3.60;;;;;;;;;;5005751;28;20048;-43
2023/01/15 03:26:49;;;;;;;10.73;4.10;;;;;;;;;;5004042;28;20018;-45
2023/01/15 03:29:15;;;;;;;12.00;3.80;;;;;;;;;;5003405;28;20032;-45
2023/01/15 03:31:43;;;;;;;9.60;4.03;;;;;;;;;;5005589;28;20670;-42
2023/01/15 03:34:10;;;;;;;5.93;3.92;;;;;;;;;;5006893;28;20046;-42
2023/01/15 03:36:36;;;;;;;7.18;3.80;;;;;;;;;;5007920;28;20033;-43
2023/01/15 03:39:01;;;;;;;9.35;4.00;;;;;;;;;;5006203;28;20043;-43
2023/01/15 03:41:36;;;;;;;11.00;3.78;;;;;;;;;;5005193;28;20474;-42
2023/01/15 03:44:10;;;;;;;6.40;3.88;;;;;;;;;;5000271;28;20040;-44
2023/01/15 03:46:45;;;;;;;7.45;3.80;;;;;;;;;;5007378;28;20025;-45
2023/01/15 03:49:19;;;;;;;7.60;3.58;;;;;;;;;;5007338;28;20379;-46
2023/01/15 03:51:59;;;;;;;10.60;4.15;;;;;;;;;;5011538;28;20029;-42
2023/01/15 03:54:34;;;;;;;8.88;3.75;;;;;;;;;;5008374;28;20494;-43
2023/01/15 03:57:15;;;;;;;7.88;3.83;;;;;;;;;;5006023;28;20560;-43
2023/01/15 03:59:53;;;;;;;8.38;4.03;;;;;;;;;;5011258;28;20465;-43
2023/01/15 04:02:21;;;;;;;6.80;3.60;;;;;;;;;;5010113;28;20053;-45
2023/01/15 04:04:48;;;;;;;7.78;4.05;;;;;;;;;;5027588;28;20021;-46
2023/01/15 04:07:14;;;;;;;5.32;3.60;;;;;;;;;;5027504;28;20029;-41
2023/01/15 04:09:39;;;;;;;7.07;3.55;;;;;;;;;;5032193;28;20056;-43
2023/01/15 04:12:05;;;;;;;7.90;3.90;;;;;;;;;;5031118;28;20091;-43
2023/01/15 04:14:32;;;;;;;10.48;3.53;;;;;;;;;;5018945;28;20033;-44
2023/01/15 04:16:57;;;;;;;9.25;3.50;;;;;;;;;;5015420;28;20036;-43
2023/01/15 04:19:23;;;;;;;7.20;3.85;;;;;;;;;;5023876;28;20042;-46
2023/01/15 04:21:48;;;;;;;8.55;4.10;;;;;;;;;;5030412;28;20158;-42
2023/01/15 04:24:14;;;;;;;8.23;3.78;;;;;;;;;;5007229;28;20064;-45
2023/01/15 04:26:39;;;;;;;6.03;3.50;;;;;;;;;;5009389;28;20080;-43
2023/01/15 04:29:05;;;;;;;6.18;3.92;;;;;;;;;;5003645;28;20038;-42
2023/01/15 04:31:32;;;;;;;10.73;3.67;;;;;;;;;;5008408;28;20018;-43
2023/01/15 04:33:57;;;;;;;9.80;3.92;;;;;;;;;;5018791;28;20410;-43
2023/01/15 04:36:23;;;;;;;10.75;4.20;;;;;;;;;;5018320;28;20033;-45
2023/01/15 04:38:48;;;;;;;9.23;4.07;;;;;;;;;;5021795;28;20045;-43
2023/01/15 04:44:06;;;;;;;8.20;4.28;;;;;;;;;;5024727;28;20540;-42
2023/01/15 04:46:43;;;;;;;9.13;3.70;;;;;;;;;;5023475;28;20699;-42
2023/01/15 04:49:16;;;;;;;13.85;4.10;;;;;;;;;;5029289;28;20099;-42
2023/01/15 04:51:43;;;;;;;7.88;3.85;;;;;;;;;;5026775;28;20430;-43
2023/01/15 04:54:11;;;;;;;7.47;4.03;;;;;;;;;;5025013;28;20033;-48
2023/01/15 04:56:40;;;;;;;7.75;3.50;;;;;;;;;;5026018;28;20154;-43
2023/01/15 04:59:05;;;;;;;7.95;4.05;;;;;;;;;;5030169;28;20038;-42
2023/01/15 05:01:31;;;;;;;9.15;3.78;;;;;;;;;;5026478;28;20018;-42
2023/01/15 05:03:57;;;;;;;7.22;3.42;;;;;;;;;;5013117;28;20037;-42
2023/01/15 05:06:24;;;;;;;5.50;3.30;;;;;;;;;;5011348;28;20033;-43
2023/01/15 05:08:49;;;;;;;5.20;3.58;;;;;;;;;;5014865;28;20654;-42
2023/01/15 05:11:14;;;;;;;8.68;3.60;;;;;;;;;;5012338;28;20026;-41
2023/01/15 05:13:40;;;;;;;5.20;3.50;;;;;;;;;;5011512;28;20046;-42
2023/01/15 05:16:13;;;;;;;6.35;3.58;;;;;;;;;;5005455;28;20053;-45
2023/01/15 05:18:40;;;;;;;7.80;3.70;;;;;;;;;;5004575;28;20038;-46
2023/01/15 05:21:05;;;;;;;6.80;3.50;;;;;;;;;;5009061;28;20034;-43
2023/01/15 05:23:31;;;;;;;8.15;3.22;;;;;;;;;;5023954;28;20096;-43
2023/01/15 05:25:56;;;;;;;9.50;3.85;;;;;;;;;;5006587;28;20394;-43
2023/01/15 05:28:21;;;;;;;7.28;3.20;;;;;;;;;;5005595;28;20046;-42
2023/01/15 05:30:47;;;;;;;6.20;3.03;;;;;;;;;;5006595;28;20032;-43
2023/01/15 05:33:12;;;;;;;8.75;3.58;;;;;;;;;;5016603;28;20076;-45
2023/01/15 05:35:38;;;;;;;6.07;3.88;;;;;;;;;;5028330;28;20033;-42
2023/01/15 05:38:05;;;;;;;6.93;3.35;;;;;;;;;;5027845;28;20156;-43
2023/01/15 05:40:30;;;;;;;6.68;3.58;;;;;;;;;;5028541;28;20034;-42
2023/01/15 05:42:56;;;;;;;5.95;3.88;;;;;;;;;;5025251;28;20412;-42
2023/01/15 05:45:21;;;;;;;9.52;3.72;;;;;;;;;;5013362;28;20038;-49
2023/01/15 05:47:47;;;;;;;8.68;3.80;;;;;;;;;;5018023;28;20034;-44
2023/01/15 05:50:12;;;;;;;7.20;3.42;;;;;;;;;;5014240;28;20028;-42
2023/01/15 05:52:37;;;;;;;7.18;3.30;;;;;;;;;;5017583;28;21287;-42
2023/01/15 05:55:03;;;;;;;6.60;3.38;;;;;;;;;;5027013;28;20406;-42
2023/01/15 05:57:28;;;;;;;11.45;4.10;;;;;;;;;;5026577;28;20116;-42
2023/01/15 05:59:55;;;;;;;5.38;3.13;;;;;;;;;;5011559;28;20034;-44
2023/01/15 06:02:20;;;;;;;5.05;3.08;;;;;;;;;;5016410;28;20576;-43
2023/01/15 06:04:46;;;;;;;6.30;3.47;;;;;;;;;;5013076;28;20025;-42
2023/01/15 06:07:11;;;;;;;9.27;3.85;;;;;;;;;;5013881;28;20386;-45
2023/01/15 06:09:36;;;;;;;8.30;3.83;;;;;;;;;;5004041;28;20026;-44
2023/01/15 06:12:02;;;;;;;6.75;3.40;;;;;;;;;;5006346;28;20026;-44
2023/01/15 06:14:27;;;;;;;8.18;3.63;;;;;;;;;;5003543;28;20035;-44
2023/01/15 06:16:53;;;;;;;9.10;3.38;;;;;;;;;;5006249;28;20034;-45
2023/01/15 06:19:18;;;;;;;8.43;3.72;;;;;;;;;;5003258;28;20038;-42
2023/01/15 06:21:44;;;;;;;4.80;3.30;;;;;;;;;;5005766;28;20033;-42
2023/01/15 06:24:10;;;;;;;7.80;3.72;;;;;;;;;;5006898;28;20038;-42
2023/01/15 06:26:36;;;;;;;5.65;3.42;;;;;;;;;;5004279;28;20026;-42
2023/01/15 06:29:02;;;;;;;7.88;3.95;;;;;;;;;;5007728;28;20410;-42
2023/01/15 06:31:27;;;;;;;8.10;3.58;;;;;;;;;;5001284;28;20022;-43
2023/01/15 06:33:52;;;;;;;9.55;3.95;;;;;;;;;;5002762;28;20033;-43
2023/01/15 06:36:20;;;;;;;12.20;3.65;;;;;;;;;;5008596;28;20157;-42
2023/01/15 06:38:47;;;;;;;11.75;3.88;;;;;;;;;;5005114;28;20042;-43
2023/01/15 06:49:32;;;;;;;7.55;3.90;;;;;;;;;;5007105;28;20056;-42
2023/01/15 06:51:57;;;;;;;11.65;4.30;;;;;;;;;;5005714;28;20386;-45
2023/01/15 06:54:23;;;;;;;14.65;4.32;;;;;;;;;;5007564;28;20069;-42
2023/01/15 06:56:48;;;;;;;11.27;3.85;;;;;;;;;;5001710;28;20061;-42
2023/01/15 06:59:14;;;;;;;7.32;3.60;;;;;;;;;;5005760;28;20045;-45
2023/01/15 07:01:39;;;;;;;6.05;3.72;;;;;;;;;;5006116;28;20064;-42
2023/01/15 07:04:04;;;;;;;8.23;3.97;;;;;;;;;;5006402;28;20243;-44
2023/01/15 07:06:30;;;;;;;9.35;3.60;;;;;;;;;;5005441;28;20069;-44
2023/01/15 07:08:56;;;;;;;8.80;3.92;;;;;;;;;;5005950;28;20042;-42
2023/01/15 07:11:21;;;;;;;8.75;3.50;;;;;;;;;;5004228;28;20030;-42
2023/01/15 07:13:47;;;;;;;9.65;3.85;;;;;;;;;;5013423;28;20600;-42
2023/01/15 07:16:26;;;;;;;6.88;3.83;;;;;;;;;;5014506;28;20470;-42
2023/01/15 07:18:53;;;;;;;9.10;4.63;;;;;;;;;;5002718;28;20553;-42
2023/01/15 07:21:18;;;;;;;5.75;4.22;;;;;;;;;;5006141;28;20095;-43
2023/01/15 07:23:44;;;;;;;6.60;4.63;;;;;;;;;;5003765;28;20042;-43
2023/01/15 07:26:09;;;;;;;7.53;4.10;;;;;;;;;;5001441;28;20050;-44
2023/01/15 07:28:35;;;;;;;9.77;4.20;;;;;;;;;;5004562;28;20065;-43
2023/01/15 07:31:00;;;;;;;9.68;4.13;;;;;;;;;;5004373;28;20069;-42
2023/01/15 07:33:26;;;;;;;8.20;4.07;;;;;;;;;;5006206;28;20069;-43
2023/01/15 07:35:51;;;;;;;8.25;4.57;;;;;;;;;;5004479;28;20486;-47
2023/01/15 07:38:16;;;;;;;6.55;4.35;;;;;;;;;;5004045;28;20121;-46
2023/01/15 07:40:42;;;;;;;6.57;3.97;;;;;;;;;;5007732;28;20025;-44
2023/01/15 07:51:20;;;;;;;7.25;5.07;;;;;;;;;;5002884;28;20065;-47
2023/01/15 07:53:46;;;;;;;7.40;5.15;;;;;;;;;;5003827;28;20459;-46
2023/01/15 07:56:12;;;;;;;8.75;4.97;;;;;;;;;;5017639;28;20036;-43
2023/01/15 07:58:37;;;;;;;11.63;4.85;;;;;;;;;;5018809;28;20034;-43
2023/01/15 08:01:02;;;;;;;6.50;4.45;;;;;;;;;;5022754;28;20470;-50
2023/01/15 08:03:28;;;;;;;10.30;5.65;;;;;;;;;;5025192;28;20041;-49
2023/01/15 08:05:53;;;;;;;12.43;7.50;;;;;;;;;;5025303;28;20112;-50
2023/01/15 08:08:19;;;;;;;24.40;14.27;;;;;;;;;;5026646;28;20056;-48
2023/01/15 08:16:14;;;;;;;16.10;10.20;;;;;;;;;;4983776;28;20121;-44
2023/01/15 08:18:40;;;;;;;16.73;9.40;;;;;;;;;;4982151;28;20097;-42
2023/01/15 08:21:05;;;;;;;15.90;7.88;;;;;;;;;;4984296;28;20042;-52
2023/01/15 08:23:31;;;;;;;14.55;6.18;;;;;;;;;;4982570;28;20049;-49
2023/01/15 08:26:00;;;;;;;13.73;6.00;;;;;;;;;;4982581;28;20116;-46
2023/01/15 08:28:25;;;;;;;9.77;6.15;;;;;;;;;;4979306;28;20043;-48
2023/01/15 08:30:51;;;;;;;9.85;6.43;;;;;;;;;;4983026;28;20050;-51
2023/01/15 08:33:16;;;;;;;9.63;5.40;;;;;;;;;;4986762;28;20530;-50
2023/01/15 08:35:42;;;;;;;11.38;5.22;;;;;;;;;;4988179;28;20031;-50
2023/01/15 08:38:08;;;;;;;10.48;5.10;;;;;;;;;;4983113;28;20042;-46
2023/01/15 08:40:57;;;;;;;13.60;7.03;;;;;;;;;;4988607;28;20029;-50
2023/01/15 08:43:20;;;;;;;16.67;7.13;;;;;;;;;;4974533;28;20945;-47
2023/01/15 08:45:45;;;;;;;19.38;9.35;;;;;;;;;;4969236;28;20035;-47
2023/01/15 08:48:11;;;;;;;16.17;8.93;;;;;;;;;;4976459;28;20042;-47
2023/01/15 08:50:36;;;;;;;18.05;10.75;;;;;;;;;;4998626;28;20549;-50
2023/01/15 08:53:01;;;;;;;27.00;10.43;;;;;;;;;;5009491;28;20100;-46
2023/01/15 08:55:27;;;;;;;9.73;6.18;;;;;;;;;;5001901;28;20045;-43
2023/01/15 08:57:52;;;;;;;11.30;6.03;;;;;;;;;;5002759;28;20088;-50
2023/01/15 09:00:18;;;;;;;11.82;5.30;;;;;;;;;;5009023;28;20470;-51
2023/01/15 09:02:43;;;;;;;7.63;5.07;;;;;;;;;;5016748;28;20037;-49
2023/01/15 09:05:08;;;;;;;6.28;5.03;;;;;;;;;;5023739;28;20021;-46
2023/01/15 09:07:34;;;;;;;8.77;5.00;;;;;;;;;;5022983;28;20053;-44
2023/01/15 09:10:00;;;;;;;13.80;5.18;;;;;;;;;;5020103;28;20075;-43
2023/01/15 09:12:26;;;;;;;14.18;5.93;;;;;;;;;;5019605;28;20037;-45
2023/01/15 09:14:51;;;;;;;14.43;8.50;;;;;;;;;;5017945;28;20026;-42
2023/01/15 09:17:17;;;;;;;23.10;15.20;;;;;;;;;;5026736;28;20064;-44
2023/01/15 09:19:42;;;;;;;27.55;16.63;;;;;;;;;;5024327;28;20030;-47
2023/01/15 09:22:07;;;;;;;26.67;15.90;;;;;;;;;;5024201;28;20110;-43
2023/01/15 09:24:33;;;;;;;22.42;12.27;;;;;;;;;;5023505;28;20053;-43
2023/01/15 09:26:58;;;;;;;16.23;8.65;;;;;;;;;;5023099;28;20028;-43
2023/01/15 09:29:23;;;;;;;13.38;8.15;;;;;;;;;;5017533;28;20048;-42
2023/01/15 09:31:49;;;;;;;15.07;8.23;;;;;;;;;;5004801;28;20017;-43
2023/01/15 09:34:14;;;;;;;15.57;9.20;;;;;;;;;;5004657;28;20053;-43
2023/01/15 09:36:40;;;;;;;12.52;9.13;;;;;;;;;;5004773;28;20074;-43
2023/01/15 09:39:05;;;;;;;15.32;9.30;;;;;;;;;;5012319;28;20038;-45
2023/01/15 09:42:06;;;;;;;18.27;11.10;;;;;;;;;;5005988;28;20494;-42
2023/01/15 09:44:40;;;;;;;41.53;21.65;;;;;;;;;;4998577;28;20095;-43
2023/01/15 09:47:27;;;;;;;37.42;20.25;;;;;;;;;;5003431;28;20018;-42
2023/01/15 09:50:01;;;;;;;27.13;15.75;;;;;;;;;;4998059;28;20137;-42
2023/01/15 09:52:45;;;;;;;16.13;10.40;;;;;;;;;;5003657;28;20045;-49
2023/01/15 09:55:24;;;;;;;19.90;10.40;;;;;;;;;;5006043;28;20072;-42
2023/01/15 09:57:53;;;;;;;17.42;9.57;;;;;;;;;;4995647;28;20046;-46
2023/01/15 10:00:24;;;;;;;27.98;10.70;;;;;;;;;;5003094;28;20048;-42
2023/01/15 10:02:54;;;;;;;28.75;11.77;;;;;;;;;;5008621;28;20064;-42
2023/01/15 10:05:46;;;;;;;23.70;9.88;;;;;;;;;;5019159;28;20060;-45
2023/01/15 10:08:25;;;;;;;13.30;7.93;;;;;;;;;;5019461;28;20124;-43
2023/01/15 10:11:01;;;;;;;12.18;7.15;;;;;;;;;;5023309;28;20463;-43
2023/01/15 10:13:26;;;;;;;15.02;6.28;;;;;;;;;;5020915;28;20065;-45
2023/01/15 10:15:52;;;;;;;10.93;5.43;;;;;;;;;;5003723;28;20157;-45
2023/01/15 10:18:23;;;;;;;14.13;5.35;;;;;;;;;;5013180;28;20041;-42
2023/01/15 10:21:13;;;;;;;11.15;4.82;;;;;;;;;;5000802;28;20034;-42
2023/01/15 10:24:01;;;;;;;8.48;4.72;;;;;;;;;;5001304;28;21624;-43
2023/01/15 10:26:41;;;;;;;9.13;4.65;;;;;;;;;;5002390;28;20141;-42
2023/01/15 10:29:22;;;;;;;11.07;5.03;;;;;;;;;;4999706;28;20050;-43
2023/01/15 10:31:50;;;;;;;7.90;4.68;;;;;;;;;;5001128;28;20037;-43
2023/01/15 10:34:45;;;;;;;6.57;4.30;;;;;;;;;;5013541;28;20052;-52
2023/01/15 10:37:35;;;;;;;10.88;4.03;;;;;;;;;;5015718;28;20033;-43
2023/01/15 10:40:03;;;;;;;7.53;4.30;;;;;;;;;;5014362;28;20052;-45
2023/01/15 10:42:50;;;;;;;14.15;4.45;;;;;;;;;;5017423;28;20049;-43
2023/01/15 10:45:21;;;;;;;9.63;3.67;;;;;;;;;;5031171;28;20495;-46
2023/01/15 10:47:52;;;;;;;11.50;3.70;;;;;;;;;;5024940;28;20444;-43
2023/01/15 10:50:21;;;;;;;8.30;4.53;;;;;;;;;;5023689;28;20040;-42
2023/01/15 10:53:12;;;;;;;9.55;3.90;;;;;;;;;;5021769;28;20050;-42
2023/01/15 10:55:49;;;;;;;10.15;4.20;;;;;;;;;;5022525;28;20025;-43
2023/01/15 10:58:32;;;;;;;12.50;3.97;;;;;;;;;;5022859;28;20045;-43
2023/01/15 11:01:04;;;;;;;10.10;4.25;;;;;;;;;;5023797;28;20040;-43
2023/01/15 11:03:37;;;;;;;9.60;3.40;;;;;;;;;;5021850;28;20048;-46
2023/01/15 11:06:04;;;;;;;10.88;4.85;;;;;;;;;;5024692;28;20458;-46
2023/01/15 11:08:31;;;;;;;7.55;3.75;;;;;;;;;;5021586;28;20037;-43
2023/01/15 11:11:03;;;;;;;6.68;3.00;;;;;;;;;;5021092;28;20033;-47
2023/01/15 11:21:52;;;;;;;15.43;4.80;;;;;;;;;;5024244;28;20040;-43
2023/01/15 11:24:19;;;;;;;11.13;4.40;;;;;;;;;;5020574;28;20494;-44
2023/01/15 11:26:49;;;;;;;12.57;4.82;;;;;;;;;;5019387;28;20037;-45
2023/01/15 11:29:29;;;;;;;9.38;5.53;;;;;;;;;;5022416;28;20042;-43
2023/01/15 11:31:54;;;;;;;11.68;5.75;;;;;;;;;;5024598;28;20057;-45
2023/01/15 11:34:21;;;;;;;17.75;5.78;;;;;;;;;;5040424;28;20072;-46
2023/01/15 11:36:47;;;;;;;11.73;4.97;;;;;;;;;;5023774;28;20025;-44
2023/01/15 11:39:27;;;;;;;9.57;5.10;;;;;;;;;;5022965;28;20512;-43
2023/01/15 11:50:59;;;;;;;12.85;5.47;;;;;;;;;;5003974;28;20037;-44
2023/01/15 11:53:28;;;;;;;37.78;17.20;;;;;;;;;;4999896;28;20513;-46
2023/01/15 11:55:59;;;;;;;11.68;6.20;;;;;;;;;;5001287;28;20402;-46
2023/01/15 11:58:32;;;;;;;14.95;6.25;;;;;;;;;;5000862;28;20085;-43
2023/01/15 12:00:58;;;;;;;22.27;8.48;;;;;;;;;;5005150;28;20029;-43
2023/01/15 12:03:27;;;;;;;11.25;6.13;;;;;;;;;;5013324;28;20041;-51
2023/01/15 12:05:58;;;;;;;13.23;5.47;;;;;;;;;;5024285;28;20129;-44
2023/01/15 12:08:44;;;;;;;17.90;6.43;;;;;;;;;;5024804;28;20033;-43
2023/01/15 12:11:19;;;;;;;7.35;4.28;;;;;;;;;;5026240;28;20025;-43
2023/01/15 12:13:47;;;;;;;9.80;5.28;;;;;;;;;;5018062;28;20045;-43
2023/01/15 12:16:43;;;;;;;11.73;5.15;;;;;;;;;;5006383;28;20103;-43
2023/01/15 12:19:17;;;;;;;7.70;3.45;;;;;;;;;;5016580;28;20121;-42
2023/01/15 12:22:14;;;;;;;10.57;4.57;;;;;;;;;;5002470;28;20441;-43
2023/01/15 12:25:10;;;;;;;10.60;4.70;;;;;;;;;;5023754;28;20065;-48
2023/01/15 12:27:41;;;;;;;8.82;3.97;;;;;;;;;;5022220;28;20058;-42
2023/01/15 12:30:12;;;;;;;11.70;4.90;;;;;;;;;;5022152;28;20033;-46
2023/01/15 12:32:45;;;;;;;14.57;7.07;;;;;;;;;;5019559;28;20054;-43
2023/01/15 12:35:16;;;;;;;13.18;5.15;;;;;;;;;;5026645;28;20091;-44
2023/01/15 12:37:51;;;;;;;14.83;5.03;;;;;;;;;;5039973;28;20041;-46
2023/01/15 12:40:55;;;;;;;9.23;5.15;;;;;;;;;;5029623;28;20025;-44
2023/01/15 12:46:18;;;;;;;16.70;7.40;;;;;;;;;;4982965;28;20565;-44
2023/01/15 12:48:53;;;;;;;;;;;;;;;;;;4968424;28;20077;-43
2023/01/15 12:51:27;;;;;;;17.45;7.68;;;;;;;;;;4962406;28;19976;-43
2023/01/15 12:54:00;;;;;;;14.77;6.78;;;;;;;;;;4959362;28;20051;-44
2023/01/15 12:56:53;;;;;;;11.45;4.18;;;;;;;;;;4965603;28;20154;-46
2023/01/15 12:59:29;;;;;;;6.65;3.90;;;;;;;;;;4984008;28;20530;-43
2023/01/15 13:02:19;;;;;;;8.90;4.20;;;;;;;;;;4983742;28;20538;-45
2023/01/15 13:05:12;;;;;;;12.90;6.45;;;;;;;;;;4981379;28;20588;-44
2023/01/15 13:07:42;;;;;;;10.55;5.20;;;;;;;;;;4979920;28;20042;-43
2023/01/15 13:10:23;;;;;;;8.82;4.28;;;;;;;;;;4971076;28;20117;-46
2023/01/15 13:12:51;;;;;;;6.75;3.85;;;;;;;;;;4959462;28;20078;-43
2023/01/15 13:15:20;;;;;;;9.18;6.53;;;;;;;;;;4960842;28;20065;-45
2023/01/15 13:18:20;;;;;;;6.88;4.45;;;;;;;;;;4958140;28;20051;-43
2023/01/15 13:20:52;;;;;;;9.10;5.25;;;;;;;;;;4999110;28;20037;-47
2023/01/15 13:23:43;;;;;;;10.07;5.00;;;;;;;;;;5001486;28;20045;-48
2023/01/15 13:26:23;;;;;;;8.10;5.18;;;;;;;;;;5021732;28;20515;-45
2023/01/15 13:29:11;;;;;;;10.85;6.03;;;;;;;;;;5004848;28;20042;-44
2023/01/15 13:31:53;;;;;;;14.68;7.15;;;;;;;;;;5006996;28;21127;-47
2023/01/15 13:34:21;;;;;;;11.05;4.88;;;;;;;;;;5006482;28;20042;-47
2023/01/15 13:36:48;;;;;;;10.25;6.30;;;;;;;;;;5006126;28;20037;-49
2023/01/15 13:39:21;;;;;;;14.55;5.53;;;;;;;;;;5005672;28;20064;-46
2023/01/15 13:44:45;;;;;;;11.05;5.28;;;;;;;;;;5001632;28;20048;-46
2023/01/15 13:47:13;;;;;;;7.47;5.20;;;;;;;;;;5005886;28;20048;-49
2023/01/15 13:49:45;;;;;;;7.85;4.35;;;;;;;;;;5023814;28;20022;-43
2023/01/15 13:52:21;;;;;;;;;;;;;;;;;;5023131;28;20112;-43
2023/01/15 13:54:47;;;;;;;8.15;4.95;;;;;;;;;;5025120;28;20035;-43
2023/01/15 13:57:35;;;;;;;9.05;4.88;;;;;;;;;;5026897;28;20108;-43
2023/01/15 14:00:06;;;;;;;8.93;5.35;;;;;;;;;;5026850;28;20064;-44
2023/01/15 14:02:37;;;;;;;10.38;4.80;;;;;;;;;;5014782;28;20124;-42
2023/01/15 14:05:35;;;;;;;15.05;6.30;;;;;;;;;;5023760;28;20029;-44
2023/01/15 14:08:13;;;;;;;10.73;5.30;;;;;;;;;;5006438;28;20046;-42
2023/01/15 14:10:39;;;;;;;10.07;5.70;;;;;;;;;;5005318;28;20022;-49
2023/01/15 14:13:16;;;;;;;13.68;6.13;;;;;;;;;;5010400;28;20582;-43
2023/01/15 14:15:52;;;;;;;7.43;5.20;;;;;;;;;;5017943;28;20073;-48
2023/01/15 14:18:34;;;;;;;8.85;4.82;;;;;;;;;;5020649;28;20060;-43
2023/01/15 14:21:17;;;;;;;7.50;4.82;;;;;;;;;;5026214;28;20026;-44
2023/01/15 14:24:07;;;;;;;12.20;5.30;;;;;;;;;;5030259;28;20122;-43
2023/01/15 14:27:04;;;;;;;12.48;5.72;;;;;;;;;;5019696;28;20041;-42
2023/01/15 14:29:42;;;;;;;12.00;6.47;;;;;;;;;;5026231;28;20037;-43
2023/01/15 14:32:26;;;;;;;17.77;8.88;;;;;;;;;;5041954;28;20111;-43
2023/01/15 14:34:57;;;;;;;13.32;6.50;;;;;;;;;;5026494;28;20045;-45
2023/01/15 14:37:43;;;;;;;12.45;6.70;;;;;;;;;;5027656;28;20108;-46
2023/01/15 14:40:20;;;;;;;17.25;9.40;;;;;;;;;;5025870;28;20103;-43
2023/01/15 14:43:03;;;;;;;13.40;8.77;;;;;;;;;;5036563;28;20037;-51
2023/01/15 14:45:36;;;;;;;16.13;7.50;;;;;;;;;;5005873;28;20022;-46
2023/01/15 14:48:26;;;;;;;17.10;8.00;;;;;;;;;;5003256;28;20038;-51
2023/01/15 14:50:52;;;;;;;14.68;7.30;;;;;;;;;;5004739;28;20025;-45
2023/01/15 14:53:37;;;;;;;8.27;6.40;;;;;;;;;;5003759;28;20042;-43
2023/01/15 14:56:17;;;;;;;14.90;6.05;;;;;;;;;;5003954;28;20034;-46
2023/01/15 14:58:54;;;;;;;19.52;10.70;;;;;;;;;;5005634;28;20049;-46
2023/01/15 15:01:20;;;;;;;9.38;5.97;;;;;;;;;;5007272;28;20088;-42
2023/01/15 15:03:55;;;;;;;12.27;6.63;;;;;;;;;;5006925;28;20582;-44
2023/01/15 15:06:21;;;;;;;13.88;7.50;;;;;;;;;;5004931;28;20038;-49
2023/01/15 15:08:50;;;;;;;11.15;6.60;;;;;;;;;;5018587;28;20057;-51
2023/01/15 15:14:10;;;;;;;12.90;5.15;;;;;;;;;;5001698;28;20521;-44
2023/01/15 15:16:43;;;;;;;10.10;6.03;;;;;;;;;;4999288;28;20030;-45
2023/01/15 15:19:27;;;;;;;16.90;7.25;;;;;;;;;;5020558;28;20046;-45
2023/01/15 15:21:56;;;;;;;11.93;6.65;;;;;;;;;;5025297;28;20026;-50
2023/01/15 15:24:32;;;;;;;11.52;6.55;;;;;;;;;;5014012;28;20045;-45
2023/01/15 15:27:17;;;;;;;10.80;5.82;;;;;;;;;;5011593;28;20052;-45
2023/01/15 15:29:43;;;;;;;12.75;6.43;;;;;;;;;;5001687;28;20060;-42
2023/01/15 15:32:16;;;;;;;14.88;6.18;;;;;;;;;;5003830;28;20030;-41
2023/01/15 15:34:45;;;;;;;15.35;6.05;;;;;;;;;;5027362;28;20037;-43
2023/01/15 15:37:22;;;;;;;16.63;7.13;;;;;;;;;;5021131;28;20132;-43
2023/01/15 15:39:53;;;;;;;12.70;6.95;;;;;;;;;;5021768;28;20064;-43
2023/01/15 15:48:41;;;;;;;12.07;5.80;;;;;;;;;;5025404;28;20056;-44
2023/01/15 15:51:36;;;;;;;7.63;4.65;;;;;;;;;;5026079;28;20049;-45
2023/01/15 15:54:15;;;;;;;8.52;4.60;;;;;;;;;;5013320;28;20077;-42
2023/01/15 15:56:56;;;;;;;12.43;5.80;;;;;;;;;;5010609;28;20495;-44
2023/01/15 15:59:34;;;;;;;8.77;5.28;;;;;;;;;;5013823;28;20088;-48
2023/01/15 16:02:13;;;;;;;7.95;4.22;;;;;;;;;;5016341;28;20390;-46